createdAt,value
2023-03-23T16:00:26.236Z,37.70
2023-03-23T16:03:32.970Z,38.00
2023-03-23T16:06:37.269Z,38.30
2023-03-23T16:09:42.436Z,38.50
2023-03-23T16:12:45.767Z,39.10
2023-03-23T16:15:51.755Z,39.40
2023-03-23T16:18:55.373Z,39.40
2023-03-23T16:21:58.846Z,39.50
2023-03-23T16:25:02.137Z,39.60
2023-03-23T16:28:05.607Z,39.70
2023-03-23T16:31:10.629Z,40.00
2023-03-23T16:34:13.893Z,40.10
2023-03-23T16:37:17.246Z,40.30
2023-03-23T16:40:21.760Z,40.40
2023-03-23T16:43:25.062Z,40.50
2023-03-23T16:46:30.478Z,40.60
2023-03-23T16:49:33.730Z,40.80
2023-03-23T16:52:46.546Z,41.00
2023-03-23T16:55:51.747Z,41.20
2023-03-23T16:58:54.970Z,41.60
2023-03-23T17:02:03.608Z,41.80
2023-03-23T17:05:07.944Z,42.10
2023-03-23T17:08:11.236Z,42.30
2023-03-23T17:11:14.763Z,42.80
2023-03-23T17:14:17.921Z,43.30
2023-03-23T17:17:24.126Z,43.80
2023-03-23T17:20:27.731Z,43.80
2023-03-23T17:23:31.460Z,44.00
2023-03-23T17:26:36.527Z,44.40
2023-03-23T17:29:40.649Z,44.80
2023-03-23T17:32:47.566Z,44.90
2023-03-23T17:35:52.094Z,45.30
2023-03-23T17:38:56.513Z,45.80
2023-03-23T17:42:00.212Z,46.60
2023-03-23T17:45:03.587Z,46.90
2023-03-23T17:48:09.083Z,47.40
2023-03-23T17:51:12.666Z,47.60
2023-03-23T17:54:16.828Z,48.50
2023-03-23T17:57:21.226Z,49.20
2023-03-23T18:00:26.146Z,49.70
2023-03-23T18:03:32.580Z,50.10
2023-03-23T18:06:37.285Z,50.60
2023-03-23T18:09:43.524Z,51.00
2023-03-23T18:12:51.377Z,51.20
2023-03-23T18:15:56.465Z,51.60
2023-03-23T18:19:02.093Z,52.10
2023-03-23T18:22:06.163Z,53.10
2023-03-23T18:25:09.872Z,52.90
2023-03-23T18:28:14.250Z,53.10
2023-03-23T18:31:20.275Z,53.40
2023-03-23T18:34:26.644Z,53.60
2023-03-23T18:37:33.566Z,54.00
2023-03-23T18:40:38.534Z,54.20
2023-03-23T18:43:43.526Z,54.50
2023-03-23T18:46:49.084Z,55.40
2023-03-23T18:49:56.092Z,55.00
2023-03-23T18:53:01.303Z,55.20
2023-03-23T18:56:09.658Z,55.60
2023-03-23T18:59:14.615Z,55.80
2023-03-23T19:02:22.206Z,56.00
2023-03-23T19:05:29.058Z,56.20
2023-03-23T19:08:35.497Z,56.50
2023-03-23T19:11:39.653Z,56.90
2023-03-23T19:14:45.076Z,57.20
2023-03-23T19:17:56.097Z,57.60
2023-03-23T19:24:10.793Z,58.10
2023-03-23T19:27:15.511Z,58.40
2023-03-23T19:30:21.198Z,58.70
2023-03-23T19:33:26.903Z,58.90
2023-03-23T19:36:33.714Z,59.10
2023-03-23T19:39:38.559Z,59.50
2023-03-23T19:42:44.004Z,59.60
2023-03-23T19:45:47.995Z,59.60
2023-03-23T19:48:52.185Z,60.10
2023-03-23T19:52:07.931Z,60.50
2023-03-23T19:55:16.852Z,60.90
2023-03-23T19:58:25.082Z,61.10
2023-03-23T20:01:29.810Z,61.50
2023-03-23T20:04:38.136Z,61.90
2023-03-23T20:07:48.597Z,62.30
2023-03-23T20:11:05.350Z,62.60
2023-03-23T20:14:13.145Z,63.00
2023-03-23T20:17:18.903Z,63.60
2023-03-23T20:20:25.042Z,64.10
2023-03-23T20:23:31.360Z,64.30
2023-03-23T20:26:43.751Z,64.90
2023-03-23T20:29:48.918Z,65.40
2023-03-23T20:32:58.580Z,65.90
2023-03-23T20:36:04.085Z,66.00
2023-03-23T20:39:11.954Z,66.40
2023-03-23T20:42:16.200Z,66.70
2023-03-23T20:45:21.318Z,67.10
2023-03-23T20:48:27.905Z,67.60
2023-03-23T20:51:34.079Z,67.80
2023-03-23T20:54:41.172Z,68.40
2023-03-23T20:57:45.983Z,68.80
2023-03-23T21:00:57.574Z,69.50
2023-03-23T21:04:03.256Z,70.20
2023-03-23T21:07:07.435Z,70.50
2023-03-23T21:10:12.695Z,70.90
2023-03-23T21:13:18.954Z,71.40
2023-03-23T21:16:24.626Z,71.70
2023-03-23T21:19:31.810Z,72.30
2023-03-23T21:22:36.533Z,72.50
2023-03-23T21:25:44.743Z,72.70
2023-03-23T21:28:50.742Z,73.20
2023-03-23T21:32:07.710Z,73.50
2023-03-23T21:35:12.343Z,73.90
2023-03-23T21:38:15.773Z,74.30
2023-03-23T21:41:20.596Z,74.70
2023-03-23T21:44:23.824Z,75.10
2023-03-23T21:47:30.286Z,75.50
2023-03-23T21:50:35.683Z,75.80
2023-03-23T21:53:38.827Z,76.20
2023-03-23T21:56:43.389Z,76.80
2023-03-23T21:59:46.972Z,77.30
2023-03-23T22:02:51.646Z,77.30
2023-03-23T22:05:55.607Z,77.90
2023-03-23T22:08:58.881Z,78.60
2023-03-23T22:12:03.621Z,78.90
2023-03-23T22:15:08.842Z,80.00
2023-03-23T22:18:12.145Z,80.50
2023-03-23T22:21:16.907Z,80.70
2023-03-23T22:24:20.197Z,81.10
2023-03-23T22:27:24.735Z,81.60
2023-03-23T22:30:29.824Z,82.10
2023-03-23T22:33:33.942Z,82.20
2023-03-23T22:36:37.236Z,82.50
2023-03-23T22:39:40.482Z,83.50
2023-03-23T22:42:45.210Z,83.50
2023-03-23T22:45:51.136Z,84.10
2023-03-23T22:48:54.700Z,84.40
2023-03-23T22:51:58.381Z,84.90
2023-03-23T22:55:01.530Z,85.10
2023-03-23T22:58:06.066Z,85.60
2023-03-23T23:01:12.374Z,85.80
2023-03-23T23:04:15.821Z,86.20
2023-03-23T23:07:19.186Z,86.30
2023-03-23T23:10:22.490Z,86.80
2023-03-23T23:13:28.456Z,87.30
2023-03-23T23:16:31.747Z,88.00
2023-03-23T23:19:35.109Z,88.20
2023-03-23T23:22:38.242Z,88.40
2023-03-23T23:25:41.727Z,88.50
2023-03-23T23:28:48.555Z,88.80
2023-03-23T23:31:51.958Z,89.00
2023-03-23T23:34:55.072Z,89.30
2023-03-23T23:37:58.269Z,89.70
2023-03-23T23:41:01.429Z,89.90
2023-03-23T23:44:06.338Z,90.10
2023-03-23T23:47:10.900Z,90.30
2023-03-23T23:50:16.991Z,90.30
2023-03-23T23:53:23.022Z,90.30
2023-03-23T23:56:26.602Z,90.30
2023-03-23T23:59:31.344Z,90.30
